Time;durP1;ratioP1;P1;durP2;ratioP2;P2;SDS_P1;SDS_P2;PMS_P1;PMS_P2;Temp;Humidity;BMP_temperature;BMP_pressure;BME280_temperature;BME280_humidity;BME280_pressure;Samples;Min_cycle;Max_cycle;Signal;HPM_P1;HPM_P2
2023/03/01 00:02:10;;;;;;;8.18;3.92;;;;;;;1.89;100.00;99939.34;5161461;27;20311;-63
2023/03/01 00:04:36;;;;;;;7.93;3.90;;;;;;;1.62;100.00;99934.53;5161287;27;20047;-67
2023/03/01 00:07:02;;;;;;;5.85;3.83;;;;;;;1.87;100.00;99934.25;5161595;27;20046;-63
2023/03/01 00:09:29;;;;;;;6.55;4.45;;;;;;;1.79;100.00;99928.66;5161220;27;20050;-66
2023/03/01 00:11:55;;;;;;;5.65;3.75;;;;;;;1.74;100.00;99924.13;5161473;27;20414;-65
2023/03/01 00:14:22;;;;;;;7.90;4.07;;;;;;;1.83;100.00;99930.50;5161198;27;20046;-65
2023/03/01 00:16:48;;;;;;;8.45;3.40;;;;;;;2.00;100.00;99935.44;5161480;27;20051;-65
2023/03/01 00:19:17;;;;;;;9.32;4.13;;;;;;;1.99;100.00;99930.31;5160940;27;20057;-65
2023/03/01 00:21:43;;;;;;;9.20;4.97;;;;;;;1.68;100.00;99938.78;5160986;27;20050;-65
2023/03/01 00:24:10;;;;;;;6.65;4.10;;;;;;;1.96;100.00;99945.22;5160967;27;20065;-63
2023/03/01 00:26:37;;;;;;;9.13;4.82;;;;;;;1.92;100.00;99946.09;5160888;27;20047;-67
2023/03/01 00:29:04;;;;;;;11.65;4.45;;;;;;;1.83;100.00;99938.63;5161235;27;20047;-65
2023/03/01 00:31:32;;;;;;;6.07;3.97;;;;;;;1.87;100.00;99928.84;5160798;27;20137;-65
2023/03/01 00:34:00;;;;;;;6.93;3.72;;;;;;;2.03;100.00;99926.75;5161148;27;20054;-66
2023/03/01 00:36:28;;;;;;;10.60;3.38;;;;;;;1.81;100.00;99921.88;5160775;27;20055;-63
2023/03/01 00:38:55;;;;;;;5.00;3.13;;;;;;;1.99;100.00;99922.22;5161093;27;20146;-65
2023/03/01 00:41:22;;;;;;;6.35;3.30;;;;;;;1.93;100.00;99916.03;5160774;27;20134;-64
2023/03/01 00:43:50;;;;;;;4.57;3.22;;;;;;;1.98;100.00;99910.59;5161127;27;20050;-66
2023/03/01 00:46:18;;;;;;;5.97;3.47;;;;;;;2.02;100.00;99910.81;5160457;27;20137;-65
2023/03/01 00:48:45;;;;;;;7.18;3.10;;;;;;;1.98;100.00;99907.09;5160548;27;20103;-64
2023/03/01 00:51:13;;;;;;;6.00;2.92;;;;;;;2.13;100.00;99909.56;5160415;27;20047;-66
2023/03/01 00:53:41;;;;;;;5.90;2.97;;;;;;;1.86;100.00;99905.56;5160711;27;20046;-63
2023/03/01 00:56:09;;;;;;;5.78;2.90;;;;;;;1.94;100.00;99903.34;5160851;27;20050;-66
2023/03/01 00:58:35;;;;;;;6.95;2.92;;;;;;;1.91;100.00;99893.91;5160553;27;20114;-65
2023/03/01 01:01:16;;;;;;;5.03;2.63;;;;;;;2.02;100.00;99891.88;5160619;27;20060;-67
2023/03/01 01:03:44;;;;;;;9.05;2.83;;;;;;;2.13;100.00;99869.00;5160238;27;20046;-64
2023/03/01 01:06:14;;;;;;;5.97;3.58;;;;;;;2.16;100.00;99871.13;5159719;27;20049;-65
2023/03/01 01:08:41;;;;;;;6.47;2.83;;;;;;;2.03;100.00;99880.78;5160323;27;20293;-64
2023/03/01 01:11:09;;;;;;;3.67;2.00;;;;;;;1.94;100.00;99871.69;5160667;27;20042;-65
2023/03/01 01:13:36;;;;;;;5.20;2.80;;;;;;;2.14;100.00;99881.44;5160435;27;20157;-66
2023/03/01 01:16:03;;;;;;;3.33;2.45;;;;;;;2.20;100.00;99884.88;5160346;27;20126;-65
2023/03/01 01:18:29;;;;;;;5.97;2.72;;;;;;;2.16;100.00;99873.03;5160460;27;20103;-63
2023/03/01 01:20:56;;;;;;;4.72;2.60;;;;;;;2.11;100.00;99871.22;5160081;27;20057;-66
2023/03/01 01:23:22;;;;;;;3.08;2.42;;;;;;;2.35;100.00;99880.06;5160192;27;20133;-65
2023/03/01 01:25:48;;;;;;;6.05;3.08;;;;;;;2.35;100.00;99869.22;5159888;27;20061;-64
2023/03/01 01:28:15;;;;;;;6.30;2.75;;;;;;;2.46;100.00;99880.72;5160383;27;20050;-63
2023/03/01 01:30:42;;;;;;;3.50;2.60;;;;;;;2.48;100.00;99859.59;5159957;27;20055;-67
2023/03/01 01:33:08;;;;;;;4.38;2.88;;;;;;;2.41;100.00;99863.75;5160345;27;20350;-66
2023/03/01 01:35:35;;;;;;;4.47;2.72;;;;;;;2.57;100.00;99860.53;5159782;27;20050;-62
2023/03/01 01:38:01;;;;;;;7.43;2.45;;;;;;;2.34;100.00;99851.41;5160182;27;20320;-66
2023/03/01 01:40:28;;;;;;;5.13;2.60;;;;;;;2.38;100.00;99851.63;5159715;27;20047;-65
2023/03/01 01:42:54;;;;;;;7.45;2.80;;;;;;;2.57;100.00;99844.28;5159712;27;20051;-64
2023/03/01 01:45:30;;;;;;;3.53;2.90;;;;;;;2.51;100.00;99810.28;5159667;27;20043;-65
2023/03/01 01:48:04;;;;;;;5.25;2.30;;;;;;;2.49;100.00;99804.34;5159623;27;20507;-63
2023/03/01 01:50:37;;;;;;;5.68;2.60;;;;;;;2.46;100.00;99796.81;5159848;27;20388;-64
2023/03/01 01:53:12;;;;;;;5.10;2.93;;;;;;;2.52;100.00;99795.63;5159568;27;20050;-64
2023/03/01 01:55:43;;;;;;;3.75;2.42;;;;;;;2.43;100.00;99781.16;5159902;27;20054;-65
2023/03/01 01:58:13;;;;;;;10.80;2.80;;;;;;;2.15;100.00;99780.25;5159407;27;20053;-63
2023/03/01 02:00:40;;;;;;;3.92;2.38;;;;;;;2.37;100.00;99798.59;5159310;27;20047;-63
2023/03/01 02:03:10;;;;;;;4.10;2.35;;;;;;;2.41;100.00;99793.41;5159392;27;20061;-66
2023/03/01 02:05:43;;;;;;;5.95;2.55;;;;;;;2.53;100.00;99783.72;5159168;27;20423;-67
2023/03/01 02:08:11;;;;;;;3.10;1.98;;;;;;;2.37;100.00;99766.13;5159640;27;20316;-63
2023/03/01 02:10:38;;;;;;;3.33;2.25;;;;;;;2.44;100.00;99787.41;5159362;27;20046;-65
2023/03/01 02:13:05;;;;;;;5.35;2.50;;;;;;;2.22;100.00;99747.44;5159470;27;20050;-67
2023/03/01 02:15:33;;;;;;;5.75;1.95;;;;;;;2.32;100.00;99753.47;5159195;27;20206;-64
2023/03/01 02:17:59;;;;;;;2.47;2.00;;;;;;;2.33;100.00;99746.16;5159119;27;20099;-64
2023/03/01 02:20:34;;;;;;;3.90;2.47;;;;;;;2.38;100.00;99759.63;5159128;27;20050;-65
2023/03/01 02:23:01;;;;;;;2.28;1.85;;;;;;;2.30;100.00;99735.91;5159581;27;20443;-65
2023/03/01 02:25:34;;;;;;;11.85;2.70;;;;;;;2.32;100.00;99731.03;5158889;27;20412;-65
2023/03/01 02:28:08;;;;;;;2.88;2.00;;;;;;;2.34;100.00;99721.53;5159258;27;20061;-65
2023/03/01 02:30:35;;;;;;;;;;;;;;;2.27;100.00;99720.31;5159489;27;20051;-63
2023/03/01 02:33:03;;;;;;;5.68;2.72;;;;;;;2.19;100.00;99715.56;5158978;27;19923;-65
2023/03/01 02:35:32;;;;;;;6.25;2.13;;;;;;;2.41;100.00;99712.22;5159317;27;20073;-65
2023/03/01 02:38:00;;;;;;;6.72;2.25;;;;;;;2.46;100.00;99698.59;5158806;27;20138;-65
2023/03/01 02:40:28;;;;;;;4.85;2.38;;;;;;;2.44;100.00;99684.56;5159141;27;20142;-66
2023/03/01 02:42:56;;;;;;;4.50;1.90;;;;;;;2.46;100.00;99674.22;5158668;27;20047;-66
2023/03/01 02:45:23;;;;;;;6.15;2.00;;;;;;;2.30;100.00;99673.69;5159149;27;20057;-65
2023/03/01 02:47:50;;;;;;;7.35;2.10;;;;;;;2.44;100.00;99661.00;5158635;27;20106;-65
2023/03/01 02:50:32;;;;;;;3.88;2.03;;;;;;;2.16;100.00;99627.69;5158563;27;20415;-63
2023/03/01 02:53:05;;;;;;;4.50;1.60;;;;;;;2.10;100.00;99629.69;5158895;27;20098;-67
2023/03/01 02:55:31;;;;;;;4.47;2.13;;;;;;;2.26;100.00;99642.94;5158775;27;20105;-64
2023/03/01 02:57:57;;;;;;;4.57;1.63;;;;;;;2.39;100.00;99617.00;5158911;27;20046;-65
2023/03/01 03:00:29;;;;;;;3.33;2.22;;;;;;;2.17;100.00;99594.13;5158591;27;20047;-64
2023/03/01 03:02:57;;;;;;;4.13;1.88;;;;;;;2.23;100.00;99606.47;5158848;27;20070;-65
2023/03/01 03:05:25;;;;;;;4.53;2.22;;;;;;;2.24;100.00;99589.13;5158321;27;20050;-65
2023/03/01 03:07:52;;;;;;;3.60;2.28;;;;;;;2.23;100.00;99595.66;5158323;27;20065;-67
2023/03/01 03:10:20;;;;;;;2.45;1.88;;;;;;;1.79;100.00;99578.00;5158248;27;20054;-66
2023/03/01 03:12:50;;;;;;;5.93;1.90;;;;;;;1.95;100.00;99597.50;5158549;27;20060;-63
2023/03/01 03:15:17;;;;;;;3.72;1.92;;;;;;;1.85;100.00;99598.47;5158548;27;20061;-65
2023/03/01 03:17:44;;;;;;;2.80;1.52;;;;;;;1.89;100.00;99604.88;5158394;27;20381;-66
2023/03/01 03:20:13;;;;;;;2.15;1.88;;;;;;;1.98;100.00;99594.19;5158508;27;20091;-64
2023/03/01 03:22:40;;;;;;;6.18;1.50;;;;;;;1.80;100.00;99563.41;5158143;27;20050;-64
2023/03/01 03:25:10;;;;;;;5.90;2.00;;;;;;;1.56;100.00;99557.31;5158400;27;20050;-66
2023/03/01 03:27:37;;;;;;;7.30;1.88;;;;;;;1.75;100.00;99617.56;5158196;27;20051;-64
2023/03/01 03:30:08;;;;;;;7.65;1.52;;;;;;;1.56;100.00;99620.28;5157864;27;20369;-66
2023/03/01 03:32:35;;;;;;;13.98;2.38;;;;;;;1.82;100.00;99657.72;5157986;27;20145;-64
2023/03/01 03:35:01;;;;;;;7.15;1.35;;;;;;;1.99;100.00;99619.31;5158418;27;20130;-67
2023/03/01 03:40:15;;;;;;;5.22;1.70;;;;;;;1.78;100.00;99575.63;5157995;27;20196;-67
2023/03/01 03:42:41;;;;;;;2.17;1.63;;;;;;;1.70;100.00;99557.38;5157994;27;20407;-66
2023/03/01 03:45:08;;;;;;;5.40;1.77;;;;;;;1.65;100.00;99555.56;5157726;27;20043;-63
2023/03/01 03:47:34;;;;;;;3.75;1.60;;;;;;;1.64;100.00;99562.88;5158012;27;20069;-66
2023/03/01 03:50:00;;;;;;;10.60;2.40;;;;;;;1.55;100.00;99548.41;5157946;27;20074;-63
2023/03/01 03:52:27;;;;;;;3.10;1.52;;;;;;;1.46;100.00;99574.50;5158102;27;20396;-66
2023/03/01 03:54:54;;;;;;;1.52;1.30;;;;;;;1.76;100.00;99600.22;5157760;27;20051;-64
2023/03/01 03:57:21;;;;;;;4.50;1.50;;;;;;;2.00;100.00;99556.84;5158224;27;20059;-65
2023/03/01 03:59:47;;;;;;;7.13;2.28;;;;;;;1.86;100.00;99524.34;5157626;27;20135;-64
2023/03/01 04:02:21;;;;;;;4.28;1.30;;;;;;;1.72;100.00;99509.22;5157937;27;20331;-65
2023/03/01 04:04:49;;;;;;;6.35;1.70;;;;;;;1.67;100.00;99526.34;5157800;27;20081;-64
2023/03/01 04:07:15;;;;;;;3.60;1.50;;;;;;;1.61;100.00;99544.53;5157828;27;20331;-64
2023/03/01 04:09:42;;;;;;;5.57;1.50;;;;;;;1.54;100.00;99557.63;5157876;27;20051;-64
2023/03/01 04:12:09;;;;;;;5.47;1.77;;;;;;;1.76;100.00;99611.03;5157625;27;20110;-66
2023/03/01 04:14:35;;;;;;;6.22;1.63;;;;;;;1.76;100.00;99597.53;5157528;27;20046;-63
2023/03/01 04:17:04;;;;;;;4.50;1.60;;;;;;;1.56;100.00;99595.16;5157328;27;20062;-66
2023/03/01 04:19:35;;;;;;;4.75;1.75;;;;;;;1.56;100.00;99614.06;5157906;27;20058;-67
2023/03/01 04:22:07;;;;;;;15.43;2.00;;;;;;;1.56;100.00;99649.19;5157439;27;20095;-63
2023/03/01 04:24:33;;;;;;;3.97;1.95;;;;;;;1.81;100.00;99656.94;5157758;27;20367;-64
2023/03/01 04:27:00;;;;;;;13.10;1.70;;;;;;;1.75;100.00;99641.88;5157492;27;20072;-66
2023/03/01 04:29:26;;;;;;;5.25;1.80;;;;;;;1.85;100.00;99625.50;5157551;27;20054;-64
2023/03/01 04:31:52;;;;;;;3.50;1.70;;;;;;;1.85;100.00;99611.97;5157414;27;20050;-66
2023/03/01 04:34:19;;;;;;;4.22;1.30;;;;;;;1.86;100.00;99610.88;5157373;27;20313;-64
2023/03/01 04:36:45;;;;;;;1.90;1.38;;;;;;;1.64;100.00;99592.59;5157291;27;20431;-67
2023/03/01 04:39:12;;;;;;;3.80;1.30;;;;;;;1.73;100.00;99597.31;5157187;27;20054;-64
2023/03/01 04:41:39;;;;;;;3.65;1.30;;;;;;;1.89;100.00;99583.25;5158419;27;20328;-65
2023/03/01 04:44:06;;;;;;;4.50;1.52;;;;;;;1.76;100.00;99567.78;5160537;27;20061;-66
2023/03/01 04:46:32;;;;;;;10.05;2.13;;;;;;;1.71;100.00;99607.63;5160809;27;20050;-64
2023/03/01 04:48:58;;;;;;;3.80;1.75;;;;;;;1.57;100.00;99613.00;5160551;27;20073;-63
2023/03/01 04:51:25;;;;;;;7.90;1.80;;;;;;;1.45;100.00;99650.47;5160922;27;20050;-67
2023/03/01 04:53:51;;;;;;;5.63;1.67;;;;;;;1.67;100.00;99718.25;5160291;27;20086;-64
2023/03/01 04:56:18;;;;;;;5.97;1.58;;;;;;;1.39;100.00;99730.78;5160312;27;20126;-65
2023/03/01 04:58:44;;;;;;;2.63;1.55;;;;;;;1.36;100.00;99755.66;5160304;27;20054;-66
2023/03/01 05:01:15;;;;;;;8.30;1.92;;;;;;;1.57;100.00;99802.97;5160302;27;20078;-70
2023/03/01 05:03:43;;;;;;;5.13;1.50;;;;;;;1.71;100.00;99803.06;5160103;27;20137;-66
2023/03/01 05:06:10;;;;;;;4.93;1.52;;;;;;;1.82;100.00;99782.09;5160200;27;20046;-71
2023/03/01 05:08:37;;;;;;;6.10;2.42;;;;;;;1.93;100.00;99750.28;5160425;27;20046;-64
2023/03/01 05:11:03;;;;;;;3.70;1.88;;;;;;;1.87;100.00;99711.72;5160268;27;20047;-65
2023/03/01 05:13:29;;;;;;;8.02;2.03;;;;;;;1.99;100.00;99689.63;5160383;27;20046;-62
2023/03/01 05:15:58;;;;;;;5.97;1.70;;;;;;;1.88;100.00;99660.06;5160154;27;20058;-67
2023/03/01 05:18:26;;;;;;;2.88;1.33;;;;;;;1.78;100.00;99599.94;5160329;27;20046;-63
2023/03/01 05:20:52;;;;;;;6.35;1.50;;;;;;;1.86;100.00;99610.88;5159896;27;20362;-61
2023/03/01 05:23:18;;;;;;;17.23;1.70;;;;;;;1.65;100.00;99593.41;5159668;27;20422;-74
2023/03/01 05:25:45;;;;;;;4.57;1.50;;;;;;;1.61;100.00;99568.88;5159783;27;20137;-64
2023/03/01 05:28:12;;;;;;;4.10;1.55;;;;;;;1.58;100.00;99558.63;5159734;27;20050;-68
2023/03/01 05:30:39;;;;;;;2.15;1.20;;;;;;;1.55;100.00;99528.72;5159592;27;20062;-64
2023/03/01 05:33:12;;;;;;;1.45;1.00;;;;;;;1.54;100.00;99517.09;5159763;27;20064;-68
2023/03/01 05:35:40;;;;;;;2.10;1.73;;;;;;;1.77;100.00;99520.75;5159704;27;20098;-62
2023/03/01 05:38:07;;;;;;;9.80;1.15;;;;;;;1.70;100.00;99504.13;5159538;27;20070;-67
2023/03/01 05:40:34;;;;;;;4.35;1.58;;;;;;;1.86;100.00;99540.56;5159647;27;20047;-67
2023/03/01 05:43:01;;;;;;;2.10;1.30;;;;;;;1.96;100.00;99517.16;5159891;27;20047;-58
2023/03/01 05:45:28;;;;;;;25.40;2.10;;;;;;;2.06;100.00;99554.84;5159706;27;20047;-61
2023/03/01 05:47:54;;;;;;;2.03;1.50;;;;;;;0.78;100.00;99529.88;5159438;27;20396;-65
2023/03/01 05:50:23;;;;;;;4.35;1.00;;;;;;;0.93;100.00;99710.53;5159781;27;20054;-66
2023/03/01 05:52:52;;;;;;;6.07;1.38;;;;;;;0.57;100.00;99758.69;5159222;27;20054;-64
2023/03/01 05:55:20;;;;;;;2.58;0.82;;;;;;;0.37;100.00;99971.94;5159624;27;20146;-67
2023/03/01 05:57:48;;;;;;;3.28;1.35;;;;;;;0.15;100.00;99934.56;5159742;27;20086;-62
2023/03/01 06:00:15;;;;;;;3.95;1.30;;;;;;;0.33;100.00;99887.25;5159331;27;20426;-63
2023/03/01 06:02:41;;;;;;;5.35;0.68;;;;;;;0.61;100.00;99850.66;5159656;27;20375;-66
2023/03/01 06:05:09;;;;;;;3.38;0.88;;;;;;;0.76;100.00;99788.44;5159017;27;20046;-64
2023/03/01 06:07:36;;;;;;;7.78;1.45;;;;;;;0.80;100.00;99662.66;5159413;27;20520;-64
2023/03/01 06:10:03;;;;;;;2.78;1.20;;;;;;;0.76;100.00;99521.25;5159107;27;20043;-62
2023/03/01 06:12:31;;;;;;;3.88;1.02;;;;;;;0.74;100.00;99385.03;5159430;27;20426;-62
2023/03/01 06:14:58;;;;;;;5.40;1.35;;;;;;;1.50;100.00;99269.41;5158891;27;20047;-74
2023/03/01 06:17:24;;;;;;;2.13;0.90;;;;;;;2.53;100.00;99071.13;5158849;27;20114;-65
2023/03/01 06:19:50;;;;;;;10.02;1.30;;;;;;;2.92;100.00;98752.66;5159308;27;20098;-73
2023/03/01 06:22:16;;;;;;;3.95;1.17;;;;;;;2.61;100.00;98618.41;5158773;27;20057;-62
2023/03/01 06:24:42;;;;;;;3.92;1.27;;;;;;;3.59;100.00;98621.75;5159215;27;20053;-78
2023/03/01 06:27:09;;;;;;;7.88;0.95;;;;;;;4.06;100.00;98659.47;5158955;27;20058;-65
2023/03/01 06:29:36;;;;;;;6.20;1.17;;;;;;;3.83;100.00;98743.09;5159012;27;20053;-72
2023/03/01 06:32:02;;;;;;;36.10;1.38;;;;;;;4.43;100.00;98778.97;5158817;27;20389;-66
2023/03/01 06:34:29;;;;;;;2.17;1.10;;;;;;;4.36;100.00;98843.88;5159013;27;20197;-66
2023/03/01 06:36:55;;;;;;;4.13;1.33;;;;;;;4.60;100.00;98887.44;5158770;27;20057;-69
2023/03/01 06:39:21;;;;;;;3.63;1.30;;;;;;;4.60;100.00;98951.78;5159093;27;20099;-72
2023/03/01 06:41:47;;;;;;;4.93;1.13;;;;;;;4.22;100.00;98977.88;5158703;27;20108;-69
2023/03/01 06:44:14;;;;;;;3.28;1.08;;;;;;;4.70;100.00;98954.13;5158846;27;20416;-69
2023/03/01 06:46:41;;;;;;;1.58;1.10;;;;;;;4.63;100.00;98992.69;5158281;27;21147;-74
2023/03/01 06:49:09;;;;;;;5.15;1.45;;;;;;;3.96;100.00;98964.44;5158557;27;20051;-65
2023/03/01 06:51:36;;;;;;;5.35;1.77;;;;;;;4.80;100.00;98950.19;5158569;27;20388;-62
2023/03/01 06:54:03;;;;;;;3.58;1.17;;;;;;;5.06;100.00;98942.63;5158486;27;20047;-57
2023/03/01 06:56:29;;;;;;;3.42;1.75;;;;;;;5.63;100.00;98966.41;5158623;27;20404;-60
2023/03/01 06:58:55;;;;;;;1.63;0.93;;;;;;;5.55;100.00;98967.28;5158077;27;20053;-68
2023/03/01 07:01:22;;;;;;;6.00;1.60;;;;;;;5.04;100.00;98998.47;5158658;27;20115;-63
2023/03/01 07:03:48;;;;;;;4.05;1.33;;;;;;;5.07;100.00;98974.13;5157393;27;20110;-61
2023/03/01 07:06:15;;;;;;;2.92;1.15;;;;;;;4.59;100.00;98951.00;5158586;27;20055;-64
2023/03/01 07:08:41;;;;;;;5.50;1.27;;;;;;;4.03;100.00;98889.91;5158146;27;20627;-64
2023/03/01 07:11:07;;;;;;;2.80;1.20;;;;;;;4.23;100.00;98859.28;5158573;27;20113;-62
2023/03/01 07:13:34;;;;;;;2.42;1.38;;;;;;;3.79;100.00;98850.63;5158376;27;20145;-62
2023/03/01 07:16:00;;;;;;;5.22;1.05;;;;;;;3.59;100.00;98797.16;5157817;27;20064;-64
2023/03/01 07:18:27;;;;;;;6.57;1.67;;;;;;;3.58;100.00;98801.78;5158321;27;20050;-63
2023/03/01 07:20:53;;;;;;;5.63;1.50;;;;;;;3.56;100.00;98766.06;5158050;27;20058;-68
2023/03/01 07:23:20;;;;;;;2.28;1.33;;;;;;;3.39;100.00;98802.19;5157986;27;20141;-64
2023/03/01 07:25:52;;;;;;;2.58;1.23;;;;;;;3.42;100.00;98798.03;5157743;27;20408;-67
2023/03/01 07:28:18;;;;;;;2.10;0.90;;;;;;;3.41;100.00;98791.03;5158176;27;20046;-67
2023/03/01 07:30:44;;;;;;;4.97;0.90;;;;;;;3.58;100.00;98828.09;5157697;27;20094;-62
2023/03/01 07:33:10;;;;;;;6.22;0.90;;;;;;;3.45;100.00;98867.84;5158157;27;20188;-64
2023/03/01 07:35:37;;;;;;;4.85;1.48;;;;;;;3.40;100.00;98821.94;5157779;27;20061;-63
2023/03/01 07:38:04;;;;;;;4.28;1.10;;;;;;;3.44;100.00;98833.75;5158112;27;20047;-61
2023/03/01 07:40:30;;;;;;;4.07;1.30;;;;;;;3.25;100.00;98815.94;5157577;27;20099;-64
2023/03/01 07:42:57;;;;;;;2.83;1.00;;;;;;;3.31;100.00;98813.88;5157520;27;20050;-63
2023/03/01 07:45:24;;;;;;;6.40;1.80;;;;;;;3.39;100.00;98850.16;5157484;27;20395;-59
2023/03/01 07:47:51;;;;;;;4.72;1.70;;;;;;;3.42;100.00;98874.69;5139577;27;20051;-64
2023/03/01 07:50:17;;;;;;;5.45;1.00;;;;;;;3.62;100.00;98891.38;5157615;27;20055;-63
2023/03/01 07:52:46;;;;;;;7.47;0.98;;;;;;;3.40;100.00;98952.00;5157492;27;20047;-64
2023/03/01 07:55:13;;;;;;;4.93;0.82;;;;;;;3.17;100.00;98954.16;5157934;27;20047;-64
2023/03/01 07:57:39;;;;;;;5.60;1.52;;;;;;;3.18;100.00;98955.72;5157620;27;20110;-71
2023/03/01 08:00:09;;;;;;;5.18;1.08;;;;;;;3.15;100.00;98940.91;5157675;27;20047;-72
2023/03/01 08:02:35;;;;;;;7.07;1.10;;;;;;;3.36;100.00;98940.22;5157456;27;20051;-70
2023/03/01 08:05:01;;;;;;;1.90;1.00;;;;;;;3.13;100.00;98953.19;5157955;27;20393;-66
2023/03/01 08:07:28;;;;;;;4.65;1.00;;;;;;;3.06;100.00;98950.94;5157254;27;20137;-67
2023/03/01 08:09:54;;;;;;;4.05;0.95;;;;;;;3.19;100.00;98949.97;5157356;27;20061;-63
2023/03/01 08:12:21;;;;;;;1.42;0.80;;;;;;;2.94;100.00;98958.94;5156961;27;20057;-61
2023/03/01 08:14:47;;;;;;;2.70;0.70;;;;;;;2.91;100.00;98968.50;5157470;27;20056;-70
2023/03/01 08:17:14;;;;;;;1.75;0.70;;;;;;;3.21;100.00;98957.81;5158309;27;20058;-65
2023/03/01 08:19:40;;;;;;;4.68;0.98;;;;;;;2.97;100.00;98967.22;5161152;27;20043;-69
2023/03/01 08:22:06;;;;;;;7.03;1.08;;;;;;;2.65;100.00;98952.22;5161437;27;20391;-69
2023/03/01 08:24:33;;;;;;;2.83;0.90;;;;;;;3.09;100.00;98942.19;5161180;27;20338;-71
2023/03/01 08:27:00;;;;;;;2.30;1.20;;;;;;;3.03;100.00;98967.84;5160851;27;20057;-70
2023/03/01 08:29:27;;;;;;;5.65;1.48;;;;;;;3.05;100.00;98965.63;5160945;27;20042;-75
2023/03/01 08:31:53;;;;;;;2.22;0.80;;;;;;;3.58;100.00;98971.75;5160872;27;20043;-66
2023/03/01 08:34:19;;;;;;;3.30;1.00;;;;;;;3.59;100.00;99019.41;5161040;27;20051;-71
2023/03/01 08:36:46;;;;;;;1.50;0.70;;;;;;;4.00;100.00;99083.94;5161341;27;20220;-66
2023/03/01 08:39:15;;;;;;;11.13;1.10;;;;;;;4.13;100.00;99133.69;5161050;27;20057;-74
2023/03/01 08:41:42;;;;;;;1.95;0.90;;;;;;;4.42;100.00;99146.56;5161038;27;20050;-68
2023/03/01 08:44:12;;;;;;;2.78;1.08;;;;;;;4.91;100.00;99187.75;5161067;27;20103;-73
2023/03/01 08:46:40;;;;;;;4.18;1.42;;;;;;;5.00;100.00;99191.22;5160926;27;20105;-70
2023/03/01 08:49:07;;;;;;;5.28;1.20;;;;;;;4.81;100.00;99210.63;5160910;27;20046;-66
2023/03/01 08:51:36;;;;;;;4.97;1.92;;;;;;;5.45;100.00;99211.59;5161095;27;20043;-69
2023/03/01 08:54:02;;;;;;;8.13;1.55;;;;;;;5.04;100.00;99245.72;5160630;27;20046;-70
2023/03/01 08:56:29;;;;;;;6.00;2.33;;;;;;;4.65;100.00;99231.28;5160576;27;20471;-67
2023/03/01 08:58:55;;;;;;;6.22;2.33;;;;;;;4.62;100.00;99215.63;5160252;27;20200;-68
2023/03/01 09:01:22;;;;;;;4.18;1.38;;;;;;;4.49;100.00;99212.00;5160662;27;20055;-62
2023/03/01 09:03:48;;;;;;;4.57;1.92;;;;;;;5.00;100.00;99206.72;5160232;27;20058;-63
2023/03/01 09:06:15;;;;;;;4.40;1.17;;;;;;;5.82;100.00;99248.78;5160220;27;20076;-67
2023/03/01 09:08:44;;;;;;;3.03;0.95;;;;;;;5.36;100.00;99258.66;5160132;27;20065;-62
2023/03/01 09:11:12;;;;;;;6.63;1.30;;;;;;;5.27;100.00;99248.97;5159977;27;20051;-64
2023/03/01 09:13:38;;;;;;;4.80;1.20;;;;;;;5.47;100.00;99259.09;5160193;27;20051;-70
2023/03/01 09:16:07;;;;;;;3.63;1.02;;;;;;;4.86;100.00;99253.09;5159970;27;20050;-61
2023/03/01 09:18:35;;;;;;;3.33;1.30;;;;;;;4.62;100.00;99250.94;5160399;27;20050;-64
2023/03/01 09:21:02;;;;;;;4.35;1.10;;;;;;;5.01;100.00;99235.50;5160115;27;20317;-58
2023/03/01 09:23:28;;;;;;;4.50;1.40;;;;;;;6.09;100.00;99246.69;5159933;27;20054;-63
2023/03/01 09:25:54;;;;;;;6.10;1.38;;;;;;;6.15;100.00;99302.53;5159913;27;20064;-60
2023/03/01 09:28:23;;;;;;;3.95;1.20;;;;;;;6.00;100.00;99331.16;5159335;27;20053;-67
2023/03/01 09:30:49;;;;;;;1.48;0.90;;;;;;;6.33;100.00;99333.94;5159556;27;20115;-66
2023/03/01 09:33:16;;;;;;;5.50;0.98;;;;;;;6.08;100.00;99345.81;5159551;27;20046;-61
2023/03/01 09:35:46;;;;;;;6.40;1.35;;;;;;;6.59;100.00;99349.25;5159585;27;20138;-59
2023/03/01 09:38:13;;;;;;;6.15;1.02;;;;;;;6.77;100.00;99353.44;5159788;27;20047;-63
2023/03/01 09:40:43;;;;;;;5.13;1.00;;;;;;;7.03;100.00;99363.28;5159733;27;20043;-67
2023/03/01 09:43:19;;;;;;;4.38;1.20;;;;;;;7.15;99.77;99365.25;5159571;27;20332;-57
2023/03/01 09:45:48;;;;;;;4.43;0.93;;;;;;;7.15;93.39;99366.03;5159746;27;20051;-57
2023/03/01 09:48:18;;;;;;;3.33;1.05;;;;;;;7.50;93.50;99369.19;5159313;27;20415;-59
2023/03/01 09:50:46;;;;;;;6.28;1.63;;;;;;;7.81;93.05;99362.38;5159675;27;20043;-64
2023/03/01 09:53:15;;;;;;;4.22;1.23;;;;;;;8.23;86.80;99373.03;5159267;27;20416;-71
2023/03/01 09:55:44;;;;;;;3.85;1.10;;;;;;;8.17;87.74;99375.22;5159790;27;20388;-69
2023/03/01 09:58:31;;;;;;;4.45;1.38;;;;;;;8.14;87.41;99364.97;5159727;27;20390;-68
2023/03/01 10:01:03;;;;;;;3.70;1.27;;;;;;;8.09;83.98;99370.66;5159664;27;20088;-64
2023/03/01 10:03:37;;;;;;;4.38;1.10;;;;;;;7.89;83.13;99366.13;5160026;27;20105;-61
2023/03/01 10:06:17;;;;;;;4.88;1.42;;;;;;;8.13;85.63;99363.41;5159159;27;20046;-64
2023/03/01 10:08:51;;;;;;;6.32;1.73;;;;;;;8.11;89.34;99357.47;5159602;27;20046;-63
2023/03/01 10:11:22;;;;;;;1.33;0.95;;;;;;;8.28;81.32;99372.81;5159157;27;20139;-65
2023/03/01 10:13:55;;;;;;;2.75;1.00;;;;;;;7.97;85.13;99362.50;5159055;27;20404;-64
2023/03/01 10:16:26;;;;;;;2.45;1.20;;;;;;;8.56;80.84;99364.69;5159163;27;20248;-70
2023/03/01 10:18:56;;;;;;;6.07;1.48;;;;;;;8.62;84.96;99360.56;5159282;27;20133;-64
2023/03/01 10:21:23;;;;;;;6.32;2.78;;;;;;;8.97;84.05;99367.41;5159091;27;20099;-65
2023/03/01 10:23:52;;;;;;;1.73;1.13;;;;;;;8.62;82.66;99367.97;5158778;27;20424;-71
2023/03/01 10:26:31;;;;;;;4.85;1.60;;;;;;;8.25;83.05;99368.81;5159249;27;20323;-72
2023/03/01 10:29:02;;;;;;;5.60;1.58;;;;;;;8.87;78.59;99361.28;5159009;27;20416;-67
2023/03/01 10:31:42;;;;;;;4.72;1.20;;;;;;;8.82;78.50;99355.25;5159026;27;20418;-68
2023/03/01 10:34:12;;;;;;;5.82;1.23;;;;;;;8.98;79.39;99366.25;5158649;27;20449;-68
2023/03/01 10:36:40;;;;;;;7.28;1.50;;;;;;;8.07;81.45;99362.03;5158848;27;20050;-63
2023/03/01 10:39:13;;;;;;;2.05;0.77;;;;;;;8.45;79.84;99367.09;5157625;27;20104;-64
2023/03/01 10:41:54;;;;;;;1.42;0.95;;;;;;;8.00;83.47;99365.34;5158615;27;20043;-66
2023/03/01 10:44:37;;;;;;;4.05;1.50;;;;;;;7.69;86.12;99362.38;5159089;27;20062;-68
2023/03/01 10:47:04;;;;;;;5.50;1.33;;;;;;;8.04;82.24;99368.19;5158519;27;20050;-71
2023/03/01 10:49:30;;;;;;;4.57;1.52;;;;;;;6.82;91.44;99349.69;5158969;27;20050;-70
2023/03/01 10:52:18;;;;;;;6.18;1.25;;;;;;;7.47;88.43;99347.25;5158842;27;20120;-65
2023/03/01 10:54:53;;;;;;;2.83;1.50;;;;;;;7.17;88.29;99357.56;5158730;27;20042;-69
2023/03/01 10:57:30;;;;;;;6.53;1.48;;;;;;;7.13;88.54;99354.69;5158683;27;20336;-66
2023/03/01 11:00:24;;;;;;;4.28;1.60;;;;;;;7.18;91.00;99351.75;5158322;27;20046;-64
2023/03/01 11:03:03;;;;;;;3.83;1.50;;;;;;;7.06;92.08;99355.25;5158612;27;20046;-67
2023/03/01 11:05:30;;;;;;;11.38;1.80;;;;;;;8.04;85.87;99351.81;5158269;27;20046;-63
2023/03/01 11:07:58;;;;;;;3.08;1.45;;;;;;;8.12;82.39;99345.41;5158407;27;20051;-68
2023/03/01 11:10:26;;;;;;;7.93;2.05;;;;;;;8.33;81.09;99339.81;5158537;27;20051;-69
2023/03/01 11:12:54;;;;;;;6.38;1.90;;;;;;;8.19;83.13;99350.28;5158301;27;20072;-65
2023/03/01 11:15:24;;;;;;;3.65;1.45;;;;;;;8.36;81.73;99341.03;5158370;27;20054;-69
2023/03/01 11:17:51;;;;;;;2.22;1.13;;;;;;;7.39;78.65;99348.16;5158123;27;20063;-63
2023/03/01 11:20:29;;;;;;;5.05;1.42;;;;;;;7.03;83.72;99346.91;5158325;27;20093;-63
2023/03/01 11:22:59;;;;;;;2.78;1.10;;;;;;;6.65;84.93;99333.53;5157763;27;20099;-68
2023/03/01 11:25:29;;;;;;;3.40;1.25;;;;;;;6.82;88.25;99334.16;5158446;27;20061;-67
2023/03/01 11:27:57;;;;;;;6.45;1.38;;;;;;;6.95;86.56;99337.72;5158125;27;20313;-69
2023/03/01 11:30:27;;;;;;;6.45;1.25;;;;;;;6.75;81.90;99344.78;5158069;27;20334;-65
2023/03/01 11:33:05;;;;;;;6.95;1.77;;;;;;;6.67;87.21;99336.72;5158322;27;20073;-68
2023/03/01 11:35:33;;;;;;;4.18;1.73;;;;;;;6.25;90.93;99339.44;5157795;27;20051;-69
2023/03/01 11:38:13;;;;;;;7.68;1.15;;;;;;;6.17;90.78;99332.94;5158429;27;20108;-67
2023/03/01 11:40:43;;;;;;;4.68;1.45;;;;;;;5.78;93.24;99326.75;5157993;27;20476;-69
2023/03/01 11:43:18;;;;;;;3.88;1.27;;;;;;;5.92;93.16;99334.66;5158143;27;20103;-65